createdAt,value
2023-05-16T00:01:38.115Z,14.13
2023-05-16T00:04:04.789Z,13.80
2023-05-16T00:06:32.011Z,16.08
2023-05-16T00:08:58.669Z,12.18
2023-05-16T00:11:25.037Z,12.85
2023-05-16T00:13:51.645Z,11.25
2023-05-16T00:16:18.160Z,11.10
2023-05-16T00:18:45.488Z,9.30
2023-05-16T00:21:12.077Z,7.88
2023-05-16T00:23:38.692Z,7.47
2023-05-16T00:26:05.129Z,7.93
2023-05-16T00:28:31.726Z,8.05
2023-05-16T00:30:58.075Z,7.63
2023-05-16T00:33:24.593Z,6.95
2023-05-16T00:35:51.603Z,5.10
2023-05-16T00:38:17.993Z,6.05
2023-05-16T00:40:44.361Z,5.93
2023-05-16T00:43:10.821Z,5.38
2023-05-16T00:45:37.188Z,6.22
2023-05-16T00:48:03.817Z,5.95
2023-05-16T00:50:30.272Z,5.93
2023-05-16T00:52:56.760Z,5.43
2023-05-16T00:55:23.238Z,5.95
2023-05-16T00:57:50.315Z,7.78
2023-05-16T01:00:19.710Z,5.47
2023-05-16T01:02:47.294Z,5.88
2023-05-16T01:05:13.746Z,5.53
2023-05-16T01:07:40.326Z,7.93
2023-05-16T01:10:08.293Z,5.60
2023-05-16T01:12:46.530Z,6.72
2023-05-16T01:15:17.007Z,5.72
2023-05-16T01:18:14.946Z,5.10
2023-05-16T01:20:49.534Z,5.80
2023-05-16T01:23:31.009Z,5.70
2023-05-16T01:26:03.668Z,5.10
2023-05-16T01:28:30.253Z,6.63
2023-05-16T01:30:56.692Z,6.60
2023-05-16T01:33:23.093Z,6.50
2023-05-16T01:36:00.320Z,4.38
2023-05-16T01:38:31.003Z,6.00
2023-05-16T01:41:04.754Z,5.93
2023-05-16T01:43:35.416Z,4.28
2023-05-16T01:46:10.346Z,5.95
2023-05-16T01:48:44.795Z,4.70
2023-05-16T01:51:12.070Z,5.80
2023-05-16T01:53:39.118Z,4.85
2023-05-16T01:56:09.421Z,5.53
2023-05-16T01:58:37.022Z,2.78
2023-05-16T02:01:05.438Z,6.10
2023-05-16T02:03:32.278Z,5.40
2023-05-16T02:05:58.839Z,6.32
2023-05-16T02:08:26.406Z,6.50
2023-05-16T02:10:53.323Z,6.18
2023-05-16T02:13:22.757Z,6.57
2023-05-16T02:15:49.224Z,8.35
2023-05-16T02:18:16.093Z,7.95
2023-05-16T02:20:42.486Z,11.85
2023-05-16T02:23:08.923Z,9.13
2023-05-16T02:25:35.342Z,9.15
2023-05-16T02:28:01.712Z,9.27
2023-05-16T02:30:28.173Z,7.18
2023-05-16T02:32:54.591Z,6.30
2023-05-16T02:35:21.422Z,5.75
2023-05-16T02:37:47.823Z,5.55
2023-05-16T02:40:14.219Z,7.82
2023-05-16T02:42:40.669Z,7.63
2023-05-16T02:45:07.339Z,6.25
2023-05-16T02:47:34.079Z,8.15
2023-05-16T02:50:00.641Z,6.60
2023-05-16T02:52:27.007Z,6.63
2023-05-16T02:57:22.702Z,11.07
2023-05-16T02:59:49.074Z,8.85
2023-05-16T03:02:15.452Z,9.13
2023-05-16T03:04:41.961Z,7.78
2023-05-16T03:07:08.341Z,6.35
2023-05-16T03:09:34.786Z,9.30
2023-05-16T03:12:01.568Z,8.55
2023-05-16T03:14:27.959Z,10.80
2023-05-16T03:16:54.332Z,13.00
2023-05-16T03:19:20.809Z,11.02
2023-05-16T03:21:47.259Z,14.20
2023-05-16T03:24:13.684Z,9.18
2023-05-16T03:26:40.273Z,8.35
2023-05-16T03:29:06.658Z,12.07
2023-05-16T03:31:33.828Z,13.23
2023-05-16T03:34:00.261Z,10.55
2023-05-16T03:36:27.365Z,12.68
2023-05-16T03:38:53.811Z,16.98
2023-05-16T03:41:20.990Z,13.45
2023-05-16T03:43:47.351Z,15.07
2023-05-16T03:46:13.848Z,12.73
2023-05-16T03:48:40.432Z,10.65
2023-05-16T03:51:06.881Z,9.82
2023-05-16T03:53:33.242Z,10.40
2023-05-16T03:55:59.750Z,8.32
2023-05-16T03:58:26.267Z,13.05
2023-05-16T04:00:52.692Z,12.65
2023-05-16T04:03:19.214Z,14.15
2023-05-16T04:05:45.876Z,14.70
2023-05-16T04:08:12.293Z,13.15
2023-05-16T04:10:38.899Z,12.43
2023-05-16T04:13:05.284Z,12.65
2023-05-16T04:15:31.643Z,12.82
2023-05-16T04:17:58.101Z,11.88
2023-05-16T04:20:24.562Z,11.52
2023-05-16T04:22:51.883Z,13.25
2023-05-16T04:25:18.317Z,14.43
2023-05-16T04:27:44.679Z,16.42
2023-05-16T04:30:11.829Z,12.10
2023-05-16T04:32:38.248Z,16.25
2023-05-16T04:35:04.813Z,12.98
2023-05-16T04:37:31.632Z,12.48
2023-05-16T04:39:58.949Z,16.67
2023-05-16T04:42:25.568Z,14.65
2023-05-16T04:44:52.621Z,12.18
2023-05-16T04:47:19.120Z,14.05
2023-05-16T04:49:45.495Z,12.02
2023-05-16T04:52:11.884Z,17.17
2023-05-16T04:54:39.067Z,18.45
2023-05-16T04:57:05.782Z,14.55
2023-05-16T04:59:32.392Z,13.13
2023-05-16T05:01:58.907Z,15.40
2023-05-16T05:04:26.078Z,11.93
2023-05-16T05:06:52.508Z,9.57
2023-05-16T05:09:18.878Z,11.48
2023-05-16T05:11:45.494Z,14.02
2023-05-16T05:14:13.113Z,12.88
2023-05-16T05:16:39.501Z,11.70
2023-05-16T05:19:05.916Z,10.43
2023-05-16T05:21:32.403Z,15.18
2023-05-16T05:23:58.873Z,13.13
2023-05-16T05:26:26.189Z,11.50
2023-05-16T05:29:04.482Z,16.45
2023-05-16T05:31:33.732Z,18.40
2023-05-16T05:34:00.892Z,13.43
2023-05-16T05:36:27.402Z,12.88
2023-05-16T05:38:53.790Z,12.60
2023-05-16T05:41:21.657Z,11.70
2023-05-16T05:43:48.074Z,15.48
2023-05-16T05:46:14.465Z,17.58
2023-05-16T05:48:41.051Z,15.15
2023-05-16T05:51:07.430Z,15.95
2023-05-16T05:53:34.456Z,18.58
2023-05-16T05:56:00.822Z,12.93
2023-05-16T05:58:27.186Z,13.45
2023-05-16T06:00:53.736Z,13.98
2023-05-16T06:03:21.271Z,23.33
2023-05-16T06:05:48.103Z,13.18
2023-05-16T06:08:14.650Z,11.75
2023-05-16T06:10:41.088Z,13.85
2023-05-16T06:13:07.562Z,15.55
2023-05-16T06:15:34.000Z,21.30
2023-05-16T06:18:00.431Z,8.82
2023-05-16T06:20:26.884Z,15.38
2023-05-16T06:22:53.280Z,14.20
2023-05-16T06:25:19.770Z,14.90
2023-05-16T06:27:46.271Z,20.98
2023-05-16T06:30:12.854Z,13.27
2023-05-16T06:32:41.006Z,11.48
2023-05-16T06:35:09.120Z,11.07
2023-05-16T06:37:35.529Z,15.27
2023-05-16T06:40:02.027Z,12.35
2023-05-16T06:42:28.513Z,12.55
2023-05-16T06:44:54.961Z,11.40
2023-05-16T06:47:21.627Z,12.55
2023-05-16T06:49:48.069Z,13.73
2023-05-16T06:52:14.521Z,8.40
2023-05-16T06:54:40.948Z,6.63
2023-05-16T06:57:08.541Z,10.13
2023-05-16T06:59:35.983Z,11.60
2023-05-16T07:02:02.676Z,11.60
2023-05-16T07:04:29.146Z,10.43
2023-05-16T07:06:55.708Z,13.48
2023-05-16T07:09:22.188Z,14.60
2023-05-16T07:11:48.739Z,7.05
2023-05-16T07:14:15.273Z,10.32
2023-05-16T07:16:41.957Z,8.40
2023-05-16T07:19:08.613Z,8.48
2023-05-16T07:21:35.267Z,12.43
2023-05-16T07:24:01.813Z,6.13
2023-05-16T07:26:28.288Z,10.32
2023-05-16T07:28:55.300Z,10.13
2023-05-16T07:31:21.874Z,11.35
2023-05-16T07:33:49.172Z,12.52
2023-05-16T07:36:17.538Z,10.05
2023-05-16T07:38:44.512Z,7.07
2023-05-16T07:41:11.087Z,8.45
2023-05-16T07:43:37.595Z,11.27
2023-05-16T07:46:04.194Z,10.77
2023-05-16T07:48:30.813Z,8.43
2023-05-16T07:50:57.990Z,7.95
2023-05-16T07:53:24.483Z,9.82
2023-05-16T07:55:51.019Z,9.63
2023-05-16T07:58:17.489Z,7.43
2023-05-16T08:00:44.120Z,11.55
2023-05-16T08:03:10.696Z,9.55
2023-05-16T08:05:37.371Z,10.00
2023-05-16T08:08:03.849Z,7.72
2023-05-16T08:10:30.370Z,7.68
2023-05-16T08:12:56.867Z,9.23
2023-05-16T08:15:23.300Z,6.75
2023-05-16T08:17:51.215Z,7.50
2023-05-16T08:20:17.681Z,6.82
2023-05-16T08:22:44.131Z,6.78
2023-05-16T08:25:10.676Z,7.03
2023-05-16T08:27:37.158Z,7.85
2023-05-16T08:30:03.791Z,9.43
2023-05-16T08:32:30.332Z,9.63
2023-05-16T08:34:56.816Z,6.97
2023-05-16T08:37:23.210Z,10.27
2023-05-16T08:39:49.662Z,8.45
2023-05-16T08:42:16.179Z,6.15
2023-05-16T08:44:42.617Z,9.55
2023-05-16T08:47:15.060Z,8.20
2023-05-16T08:52:09.813Z,7.88
2023-05-16T08:54:37.247Z,7.00
2023-05-16T08:57:04.043Z,8.25
2023-05-16T08:59:30.575Z,5.70
2023-05-16T09:01:57.712Z,8.82
2023-05-16T09:04:26.067Z,5.90
2023-05-16T09:06:52.550Z,7.32
2023-05-16T09:09:19.634Z,7.95
2023-05-16T09:11:46.225Z,6.55
2023-05-16T09:14:12.770Z,7.43
2023-05-16T09:16:40.056Z,7.05
2023-05-16T09:19:06.910Z,10.45
2023-05-16T09:21:34.605Z,9.27
2023-05-16T09:24:05.727Z,6.97
2023-05-16T09:26:33.433Z,2.88
2023-05-16T09:28:59.878Z,8.52
2023-05-16T09:31:27.858Z,8.38
2023-05-16T09:33:56.648Z,8.80
2023-05-16T09:36:23.176Z,8.15
2023-05-16T09:38:53.337Z,6.28
2023-05-16T09:41:21.881Z,7.10
2023-05-16T09:43:48.410Z,5.47
2023-05-16T09:46:26.408Z,6.22
2023-05-16T09:48:52.929Z,6.25
2023-05-16T09:51:22.548Z,4.53
2023-05-16T09:53:48.957Z,5.65
2023-05-16T09:56:16.388Z,6.95
2023-05-16T09:58:44.609Z,6.53
2023-05-16T10:01:11.590Z,7.07
2023-05-16T10:03:40.305Z,5.00
2023-05-16T10:06:07.933Z,3.85
2023-05-16T10:08:36.566Z,5.72
2023-05-16T10:11:04.628Z,8.20
2023-05-16T10:13:32.957Z,4.78
2023-05-16T10:16:00.890Z,5.13
2023-05-16T10:18:32.084Z,5.18
2023-05-16T10:21:04.658Z,4.93
2023-05-16T10:23:31.503Z,6.93
2023-05-16T10:25:58.037Z,7.30
2023-05-16T10:28:25.483Z,6.95
2023-05-16T10:30:52.051Z,5.05
2023-05-16T10:33:19.650Z,5.80
2023-05-16T10:35:46.820Z,5.43
2023-05-16T10:38:15.488Z,7.68
2023-05-16T10:40:42.573Z,6.60
2023-05-16T10:43:09.599Z,7.15
2023-05-16T10:45:42.362Z,5.40
2023-05-16T10:48:12.388Z,6.43
2023-05-16T10:50:44.066Z,5.70
2023-05-16T10:53:23.638Z,5.67
2023-05-16T10:55:59.120Z,6.78
2023-05-16T10:58:42.177Z,7.47
2023-05-16T11:01:34.785Z,5.88
2023-05-16T11:04:06.224Z,5.13
2023-05-16T11:06:44.737Z,6.88
2023-05-16T11:09:13.931Z,4.30
2023-05-16T11:11:52.449Z,3.85
2023-05-16T11:14:25.427Z,5.72
2023-05-16T11:16:55.203Z,4.80
2023-05-16T11:19:35.090Z,2.80
2023-05-16T11:22:08.024Z,4.43
2023-05-16T11:24:36.137Z,3.80
2023-05-16T11:27:04.141Z,3.17
2023-05-16T11:29:35.275Z,2.58
2023-05-16T11:32:04.716Z,3.35
2023-05-16T11:34:32.309Z,4.65
2023-05-16T11:37:00.120Z,3.35
2023-05-16T11:39:26.642Z,4.32
2023-05-16T11:41:56.097Z,2.83
2023-05-16T11:44:22.584Z,6.00
2023-05-16T11:46:49.072Z,3.83
2023-05-16T11:49:15.692Z,6.60
2023-05-16T11:51:43.298Z,5.30
2023-05-16T11:54:10.155Z,5.75
2023-05-16T11:56:37.023Z,4.75
2023-05-16T11:59:03.714Z,3.28
2023-05-16T12:01:39.892Z,7.82
2023-05-16T12:04:11.674Z,5.72
2023-05-16T12:06:44.197Z,4.50
2023-05-16T12:11:44.316Z,5.50
2023-05-16T12:14:12.733Z,5.72
2023-05-16T12:16:42.207Z,4.05
2023-05-16T12:19:09.195Z,2.17
2023-05-16T12:21:36.240Z,4.05
2023-05-16T12:24:02.690Z,3.90
2023-05-16T12:26:33.554Z,3.05
2023-05-16T12:29:00.964Z,4.85
2023-05-16T12:31:32.330Z,3.72
2023-05-16T12:33:59.628Z,4.78
2023-05-16T12:36:26.448Z,3.45
2023-05-16T12:38:53.574Z,2.65
2023-05-16T12:41:23.367Z,2.97
2023-05-16T12:43:50.132Z,6.20
2023-05-16T12:46:17.530Z,7.07
2023-05-16T12:48:44.235Z,6.70
2023-05-16T12:51:13.704Z,5.13
2023-05-16T12:54:01.422Z,4.55
2023-05-16T12:56:32.436Z,5.20
2023-05-16T12:58:58.836Z,6.78
2023-05-16T13:01:25.493Z,5.88
2023-05-16T13:03:52.086Z,6.38
2023-05-16T13:06:18.588Z,5.47
2023-05-16T13:08:45.012Z,5.28
2023-05-16T13:11:11.487Z,6.75
2023-05-16T13:13:37.964Z,3.38
2023-05-16T13:16:04.621Z,5.05
2023-05-16T13:18:31.817Z,5.60
2023-05-16T13:20:58.509Z,3.75
2023-05-16T13:23:24.906Z,4.43
2023-05-16T13:25:52.968Z,3.85
2023-05-16T13:28:19.563Z,4.25
2023-05-16T13:30:45.972Z,3.92
2023-05-16T13:33:12.581Z,2.60
2023-05-16T13:35:39.118Z,5.13
2023-05-16T13:38:05.689Z,2.45
2023-05-16T13:40:32.861Z,4.20
2023-05-16T13:43:00.936Z,4.40
2023-05-16T13:45:27.869Z,3.25
2023-05-16T13:47:54.883Z,3.55
2023-05-16T13:50:21.528Z,2.45
2023-05-16T13:52:48.695Z,6.50
2023-05-16T13:55:15.252Z,4.05
2023-05-16T13:57:41.763Z,4.75
2023-05-16T14:02:42.770Z,5.07
2023-05-16T14:05:09.998Z,3.60
2023-05-16T14:07:36.525Z,4.50
2023-05-16T14:10:03.963Z,2.72
2023-05-16T14:12:31.215Z,4.70
2023-05-16T14:14:57.872Z,3.60
2023-05-16T14:17:24.346Z,5.03
2023-05-16T14:19:51.005Z,6.70
2023-05-16T14:22:18.889Z,6.60
2023-05-16T14:24:45.406Z,5.15
2023-05-16T14:27:12.217Z,6.90
2023-05-16T14:29:38.667Z,5.18
2023-05-16T14:32:05.535Z,3.78
2023-05-16T14:34:32.840Z,4.97
2023-05-16T14:36:59.440Z,4.80
2023-05-16T14:39:27.112Z,4.28
2023-05-16T14:41:53.563Z,5.65
2023-05-16T14:44:21.656Z,3.58
2023-05-16T14:46:48.464Z,4.03
2023-05-16T14:49:15.079Z,4.60
2023-05-16T14:51:41.701Z,3.47
2023-05-16T14:54:08.571Z,4.43
2023-05-16T14:56:34.994Z,4.57
2023-05-16T14:59:01.620Z,2.60
2023-05-16T15:01:28.304Z,4.18
2023-05-16T15:03:56.346Z,2.53
2023-05-16T15:06:24.186Z,3.50
2023-05-16T15:08:50.916Z,4.65
2023-05-16T15:11:17.400Z,3.17
2023-05-16T15:13:44.023Z,8.73
2023-05-16T15:16:10.788Z,3.60
2023-05-16T15:18:37.591Z,7.05
2023-05-16T15:21:04.088Z,3.08
2023-05-16T15:23:30.712Z,4.28
2023-05-16T15:25:57.104Z,3.13
2023-05-16T15:28:23.744Z,2.80
2023-05-16T15:30:51.235Z,3.80
2023-05-16T15:33:17.878Z,5.55
2023-05-16T15:35:44.516Z,2.25
2023-05-16T15:38:10.967Z,4.93
2023-05-16T15:40:37.440Z,4.45
2023-05-16T15:43:04.019Z,7.78
2023-05-16T15:45:30.840Z,4.28
2023-05-16T15:47:57.606Z,7.00
2023-05-16T15:50:24.870Z,5.20
2023-05-16T15:52:51.295Z,3.30
2023-05-16T15:55:17.778Z,5.35
2023-05-16T15:57:44.586Z,5.07
2023-05-16T16:00:11.881Z,4.90
2023-05-16T16:02:38.660Z,5.38
2023-05-16T16:05:05.441Z,7.15
2023-05-16T16:07:32.117Z,6.18
2023-05-16T16:09:59.693Z,5.45
2023-05-16T16:12:26.248Z,6.32
2023-05-16T16:14:52.949Z,6.78
2023-05-16T16:17:19.789Z,4.88
2023-05-16T16:19:46.755Z,5.28
2023-05-16T16:22:13.156Z,5.82
2023-05-16T16:24:39.560Z,4.30
2023-05-16T16:27:06.306Z,4.75
2023-05-16T16:29:32.721Z,5.63
2023-05-16T16:31:59.336Z,7.25
2023-05-16T16:34:25.897Z,4.85
2023-05-16T16:36:52.525Z,5.93
2023-05-16T16:39:20.044Z,6.00
2023-05-16T16:41:46.711Z,7.55
2023-05-16T16:44:13.177Z,8.05
2023-05-16T16:46:39.730Z,8.32
2023-05-16T16:49:06.644Z,6.47
2023-05-16T16:51:33.844Z,6.28
2023-05-16T16:54:00.299Z,6.07
2023-05-16T16:56:28.114Z,5.43
2023-05-16T16:58:55.800Z,8.10
2023-05-16T17:01:22.832Z,6.80
2023-05-16T17:03:49.833Z,7.82
2023-05-16T17:06:16.239Z,8.20
2023-05-16T17:08:43.327Z,5.82
2023-05-16T17:11:09.834Z,6.97
2023-05-16T17:13:37.542Z,5.70
2023-05-16T17:16:04.258Z,7.35
2023-05-16T17:18:33.885Z,8.18
2023-05-16T17:21:01.196Z,9.55
2023-05-16T17:23:27.617Z,7.43
2023-05-16T17:25:54.029Z,8.55
2023-05-16T17:28:20.505Z,6.95
2023-05-16T17:30:46.974Z,8.73
2023-05-16T17:33:14.007Z,7.10
2023-05-16T17:35:41.047Z,7.93
2023-05-16T17:38:07.658Z,7.28
2023-05-16T17:40:34.080Z,7.32
2023-05-16T17:43:00.492Z,7.57
2023-05-16T17:45:27.286Z,9.07
2023-05-16T17:47:53.859Z,9.88
2023-05-16T17:50:21.710Z,11.50
2023-05-16T17:52:48.230Z,7.95
2023-05-16T17:55:14.728Z,8.07
2023-05-16T17:57:41.302Z,9.38
2023-05-16T18:00:09.136Z,6.40
2023-05-16T18:02:38.172Z,8.73
2023-05-16T18:05:06.586Z,6.22
2023-05-16T18:07:33.921Z,6.93
2023-05-16T18:10:00.390Z,6.72
2023-05-16T18:12:26.943Z,6.47
2023-05-16T18:14:53.430Z,10.88
2023-05-16T18:17:20.122Z,7.63
2023-05-16T18:19:46.634Z,7.25
2023-05-16T18:22:13.818Z,6.10
2023-05-16T18:24:40.271Z,6.82
2023-05-16T18:27:06.716Z,7.53
2023-05-16T18:29:33.275Z,5.03
2023-05-16T18:32:00.002Z,7.05
2023-05-16T18:34:26.517Z,8.38
2023-05-16T18:36:52.931Z,6.35
2023-05-16T18:39:20.312Z,8.05
2023-05-16T18:41:48.198Z,5.63
2023-05-16T18:44:17.276Z,6.68
2023-05-16T18:46:45.368Z,7.40
2023-05-16T18:49:12.760Z,7.40
2023-05-16T18:51:39.254Z,5.85
2023-05-16T18:54:05.774Z,5.78
2023-05-16T18:56:32.334Z,7.70
2023-05-16T18:58:58.769Z,12.95
2023-05-16T19:01:25.421Z,7.95
2023-05-16T19:03:52.187Z,5.93
2023-05-16T19:06:18.692Z,7.15
2023-05-16T19:08:47.892Z,8.85
2023-05-16T19:11:14.706Z,7.97
2023-05-16T19:13:41.196Z,6.72
2023-05-16T19:16:07.624Z,8.85
2023-05-16T19:18:35.113Z,8.02
2023-05-16T19:21:01.800Z,7.00
2023-05-16T19:23:28.190Z,6.38
2023-05-16T19:25:54.676Z,7.07
2023-05-16T19:28:21.156Z,5.40
2023-05-16T19:30:47.565Z,5.85
2023-05-16T19:33:14.918Z,4.88
2023-05-16T19:35:41.525Z,6.15
2023-05-16T19:38:07.977Z,6.18
2023-05-16T19:40:34.471Z,6.07
2023-05-16T19:43:00.920Z,5.03
2023-05-16T19:45:27.592Z,4.93
2023-05-16T19:47:54.243Z,5.20
2023-05-16T19:50:21.651Z,5.55
2023-05-16T19:52:48.081Z,7.13
2023-05-16T19:55:14.484Z,6.13
2023-05-16T19:57:40.999Z,6.55
2023-05-16T20:00:08.208Z,6.97
2023-05-16T20:02:34.745Z,10.55
2023-05-16T20:05:01.279Z,5.63
2023-05-16T20:07:27.753Z,6.07
2023-05-16T20:09:54.716Z,9.73
2023-05-16T20:12:21.241Z,7.10
2023-05-16T20:14:47.663Z,6.72
2023-05-16T20:17:14.075Z,8.63
2023-05-16T20:19:43.898Z,6.18
2023-05-16T20:22:10.670Z,6.70
2023-05-16T20:24:37.493Z,5.15
2023-05-16T20:27:04.092Z,6.53
2023-05-16T20:29:32.467Z,6.20
2023-05-16T20:31:59.196Z,5.28
2023-05-16T20:34:26.077Z,5.28
2023-05-16T20:36:52.476Z,5.38
2023-05-16T20:39:18.939Z,6.30
2023-05-16T20:41:45.424Z,5.82
2023-05-16T20:44:11.929Z,4.10
2023-05-16T20:46:40.370Z,5.38
2023-05-16T20:49:07.012Z,5.78
2023-05-16T20:51:33.454Z,7.93
2023-05-16T20:53:59.866Z,4.47
2023-05-16T20:56:26.301Z,4.78
2023-05-16T20:58:52.690Z,6.30
2023-05-16T21:01:19.169Z,6.18
2023-05-16T21:03:45.578Z,5.20
2023-05-16T21:06:12.168Z,4.55
2023-05-16T21:08:39.175Z,4.47
2023-05-16T21:11:05.612Z,5.07
2023-05-16T21:13:32.032Z,6.07
2023-05-16T21:15:58.545Z,6.72
2023-05-16T21:18:25.196Z,9.38
2023-05-16T21:20:51.770Z,4.63
2023-05-16T21:23:18.216Z,4.72
2023-05-16T21:25:44.669Z,4.95
2023-05-16T21:28:11.145Z,8.90
2023-05-16T21:30:37.609Z,4.97
2023-05-16T21:33:04.208Z,5.38
2023-05-16T21:35:31.005Z,6.35
2023-05-16T21:37:57.448Z,7.15
2023-05-16T21:40:25.531Z,5.05
2023-05-16T21:42:52.707Z,6.00
2023-05-16T21:45:19.214Z,6.25
2023-05-16T21:47:46.431Z,6.65
2023-05-16T21:50:13.181Z,4.97
2023-05-16T21:52:39.716Z,5.63
2023-05-16T21:55:06.831Z,6.70
2023-05-16T21:57:33.278Z,5.43
2023-05-16T21:59:59.729Z,5.90
2023-05-16T22:02:26.286Z,5.20
2023-05-16T22:04:53.253Z,5.32
2023-05-16T22:07:19.841Z,7.50
2023-05-16T22:09:50.594Z,7.63
2023-05-16T22:12:17.146Z,7.88
2023-05-16T22:14:43.565Z,2.95
2023-05-16T22:17:09.992Z,5.75
2023-05-16T22:19:36.526Z,4.93
2023-05-16T22:22:03.064Z,5.80
2023-05-16T22:24:29.512Z,8.98
2023-05-16T22:26:56.042Z,4.82
2023-05-16T22:29:22.433Z,7.18
2023-05-16T22:31:48.861Z,6.43
2023-05-16T22:34:15.321Z,7.00
2023-05-16T22:36:42.485Z,5.95
2023-05-16T22:39:08.959Z,6.65
2023-05-16T22:41:35.486Z,5.93
2023-05-16T22:44:01.903Z,5.63
2023-05-16T22:46:28.495Z,5.18
2023-05-16T22:48:56.440Z,5.03
2023-05-16T22:51:22.944Z,5.38
2023-05-16T22:53:49.346Z,6.20
2023-05-16T22:56:15.943Z,9.02
2023-05-16T22:58:42.325Z,4.90
2023-05-16T23:01:08.945Z,3.85
2023-05-16T23:03:35.687Z,6.90
2023-05-16T23:06:02.200Z,3.90
2023-05-16T23:08:28.622Z,6.22
2023-05-16T23:10:55.058Z,5.97
2023-05-16T23:13:21.495Z,6.55
2023-05-16T23:15:47.964Z,4.18
2023-05-16T23:18:14.517Z,5.65
2023-05-16T23:20:41.019Z,9.57
2023-05-16T23:23:07.540Z,6.97
2023-05-16T23:25:33.937Z,9.45
2023-05-16T23:28:00.412Z,5.65
2023-05-16T23:30:26.842Z,5.68
2023-05-16T23:32:53.513Z,7.07
2023-05-16T23:35:20.119Z,6.63
2023-05-16T23:37:46.538Z,6.20
2023-05-16T23:40:13.022Z,6.28
2023-05-16T23:42:41.167Z,6.60
2023-05-16T23:45:08.431Z,7.70
2023-05-16T23:47:35.088Z,8.07
2023-05-16T23:50:01.676Z,7.70
2023-05-16T23:52:28.139Z,9.18
2023-05-16T23:54:54.536Z,5.47
2023-05-16T23:57:21.077Z,6.03
2023-05-16T23:59:47.511Z,6.28
